Terminal Aerodrome Forecast
Issued by NWS

Home | Current Version | Previous Version | Text Only | Print | Product List | Glossary On
Versions: 1 2 3 4 5 6 7 8 9 10 11 12
000
FTUS41 KBTV 301740
TAFMSS
TAF
KMSS 301740Z 3018/0118 04008KT P6SM SKC
     FM010100 05004KT P6SM SCT250
     FM010600 06007KT P6SM OVC090
     FM011200 07007KT 3SM -RA BR OVC045=

USA.gov is the U.S. government's official web portal to all federal, state and local government web resources and services.